createdAt,value
2022-12-17T00:01:36.370Z,30.50
2022-12-17T00:04:18.794Z,29.73
2022-12-17T00:06:59.382Z,34.05
2022-12-17T00:09:39.985Z,62.22
2022-12-17T00:12:20.686Z,40.55
2022-12-17T00:15:02.219Z,28.63
2022-12-17T00:17:42.726Z,28.38
2022-12-17T00:20:23.788Z,27.13
2022-12-17T00:23:12.186Z,25.48
2022-12-17T00:25:52.718Z,34.60
2022-12-17T00:28:33.418Z,28.88
2022-12-17T00:31:14.265Z,29.98
2022-12-17T00:34:11.026Z,24.33
2022-12-17T00:36:50.628Z,34.05
2022-12-17T00:39:31.128Z,25.60
2022-12-17T00:42:11.688Z,27.73
2022-12-17T00:44:53.316Z,26.58
2022-12-17T00:47:34.168Z,34.72
2022-12-17T00:50:14.762Z,25.73
2022-12-17T00:52:55.376Z,27.08
2022-12-17T00:55:37.023Z,26.25
2022-12-17T00:58:17.604Z,27.75
2022-12-17T01:00:58.293Z,26.02
2022-12-17T01:03:39.305Z,24.20
2022-12-17T01:06:21.148Z,26.17
2022-12-17T01:09:01.721Z,29.30
2022-12-17T01:11:41.506Z,24.48
2022-12-17T01:14:22.496Z,25.98
2022-12-17T01:17:03.126Z,23.92
2022-12-17T01:19:43.764Z,25.15
2022-12-17T01:22:24.348Z,24.00
2022-12-17T01:25:04.833Z,24.38
2022-12-17T01:27:44.846Z,23.33
2022-12-17T01:30:25.488Z,21.73
2022-12-17T01:33:06.174Z,22.65
2022-12-17T01:35:46.690Z,22.83
2022-12-17T01:38:31.878Z,24.95
2022-12-17T01:43:53.920Z,23.35
2022-12-17T01:46:35.487Z,22.35
2022-12-17T01:49:16.530Z,21.08
2022-12-17T01:51:57.046Z,22.13
2022-12-17T01:54:37.702Z,20.80
2022-12-17T01:57:20.228Z,22.50
2022-12-17T02:00:04.042Z,23.10
2022-12-17T02:02:45.427Z,21.60
2022-12-17T02:05:26.667Z,17.83
2022-12-17T02:08:10.072Z,21.73
2022-12-17T02:11:00.045Z,22.05
2022-12-17T02:13:54.345Z,21.23
2022-12-17T02:16:38.909Z,20.73
2022-12-17T02:19:31.423Z,22.00
2022-12-17T02:22:13.767Z,20.92
2022-12-17T02:24:58.232Z,22.88
2022-12-17T02:27:38.958Z,30.50
2022-12-17T02:30:20.881Z,23.23
2022-12-17T02:33:03.210Z,24.00
2022-12-17T02:35:45.412Z,22.38
2022-12-17T02:38:31.708Z,21.55
2022-12-17T02:41:12.223Z,22.02
2022-12-17T02:43:52.913Z,21.17
2022-12-17T02:46:33.300Z,19.63
2022-12-17T02:49:14.041Z,22.02
2022-12-17T02:51:55.699Z,21.40
2022-12-17T02:54:36.370Z,21.25
2022-12-17T02:57:16.906Z,21.67
2022-12-17T02:59:56.387Z,20.95
2022-12-17T03:02:37.243Z,22.55
2022-12-17T03:05:43.282Z,21.83
2022-12-17T03:08:18.712Z,22.90
2022-12-17T03:10:59.317Z,20.90
2022-12-17T03:13:41.998Z,21.27
2022-12-17T03:16:26.959Z,19.95
2022-12-17T03:19:08.093Z,22.52
2022-12-17T03:21:48.638Z,22.75
2022-12-17T03:24:29.258Z,20.98
2022-12-17T03:27:09.839Z,21.00
2022-12-17T03:29:49.553Z,21.92
2022-12-17T03:32:30.026Z,21.80
2022-12-17T03:35:10.870Z,23.02
2022-12-17T03:37:51.458Z,21.75
2022-12-17T03:40:32.042Z,23.70
2022-12-17T03:43:12.516Z,25.50
2022-12-17T03:45:53.364Z,25.00
2022-12-17T03:48:33.903Z,25.60
2022-12-17T03:51:14.551Z,25.40
2022-12-17T03:53:54.320Z,25.30
2022-12-17T03:56:34.989Z,22.10
2022-12-17T03:59:15.618Z,21.98
2022-12-17T04:01:55.627Z,24.02
2022-12-17T04:04:36.214Z,25.08
2022-12-17T04:07:16.910Z,21.80
2022-12-17T04:09:57.477Z,20.75
2022-12-17T04:12:38.145Z,22.23
2022-12-17T04:15:18.330Z,21.02
2022-12-17T04:17:58.954Z,23.35
2022-12-17T04:20:39.593Z,21.60
2022-12-17T04:23:20.260Z,23.70
2022-12-17T04:26:00.794Z,24.05
2022-12-17T04:28:40.437Z,21.05
2022-12-17T04:31:21.035Z,20.60
2022-12-17T04:34:01.902Z,21.05
2022-12-17T04:36:42.504Z,23.38
2022-12-17T04:39:23.575Z,22.42
2022-12-17T04:42:04.131Z,22.02
2022-12-17T04:45:00.399Z,22.73
2022-12-17T04:47:40.886Z,21.63
2022-12-17T04:50:21.567Z,22.85
2022-12-17T04:53:02.089Z,22.88
2022-12-17T04:55:42.780Z,33.47
2022-12-17T04:58:23.711Z,43.35
2022-12-17T05:01:07.687Z,52.88
2022-12-17T05:03:49.214Z,59.33
2022-12-17T05:06:29.745Z,48.38
2022-12-17T05:09:10.216Z,32.72
2022-12-17T05:11:50.791Z,23.83
2022-12-17T05:14:31.682Z,27.50
2022-12-17T05:17:12.281Z,24.65
2022-12-17T05:19:52.767Z,21.55
2022-12-17T05:22:33.373Z,27.45
2022-12-17T05:25:20.225Z,31.40
2022-12-17T05:28:01.436Z,30.85
2022-12-17T05:30:41.951Z,52.28
2022-12-17T05:33:22.594Z,33.35
2022-12-17T05:36:03.073Z,30.75
2022-12-17T05:38:43.557Z,24.67
2022-12-17T05:41:23.958Z,23.42
2022-12-17T05:44:03.599Z,24.17
2022-12-17T05:46:44.145Z,22.02
2022-12-17T05:49:24.818Z,23.63
2022-12-17T05:52:06.273Z,26.50
2022-12-17T05:54:46.777Z,29.35
2022-12-17T05:57:28.244Z,31.27
2022-12-17T06:00:08.872Z,25.77
2022-12-17T06:02:49.432Z,21.60
2022-12-17T06:05:30.100Z,20.75
2022-12-17T06:08:22.955Z,23.00
2022-12-17T06:11:03.604Z,19.77
2022-12-17T06:13:44.223Z,19.88
2022-12-17T06:16:24.856Z,24.00
2022-12-17T06:19:05.380Z,36.85
2022-12-17T06:21:45.988Z,32.60
2022-12-17T06:24:25.504Z,24.23
2022-12-17T06:27:06.106Z,29.27
2022-12-17T06:29:46.633Z,77.25
2022-12-17T06:32:26.323Z,34.33
2022-12-17T06:35:06.927Z,26.75
2022-12-17T06:37:47.549Z,31.17
2022-12-17T06:40:28.156Z,47.08
2022-12-17T06:43:09.173Z,35.08
2022-12-17T06:45:49.671Z,36.70
2022-12-17T06:48:30.604Z,26.80
2022-12-17T06:51:20.050Z,27.73
2022-12-17T06:54:00.937Z,25.63
2022-12-17T06:56:41.667Z,22.00
2022-12-17T06:59:22.218Z,22.77
2022-12-17T07:02:03.056Z,25.10
2022-12-17T07:04:43.763Z,25.45
2022-12-17T07:07:24.627Z,24.92
2022-12-17T07:10:09.329Z,24.45
2022-12-17T07:12:54.265Z,24.33
2022-12-17T07:15:34.873Z,29.38
2022-12-17T07:18:17.264Z,27.80
2022-12-17T07:20:58.256Z,27.13
2022-12-17T07:23:39.230Z,28.13
2022-12-17T07:26:20.141Z,32.90
2022-12-17T07:29:00.805Z,28.77
2022-12-17T07:31:41.571Z,25.70
2022-12-17T07:34:22.238Z,19.98
2022-12-17T07:37:02.866Z,23.35
2022-12-17T07:39:43.447Z,22.85
2022-12-17T07:42:23.981Z,26.27
2022-12-17T07:45:03.687Z,26.50
2022-12-17T07:47:45.256Z,20.80
2022-12-17T07:50:26.498Z,22.25
2022-12-17T07:53:17.200Z,21.95
2022-12-17T07:55:57.963Z,23.00
2022-12-17T07:58:37.507Z,24.63
2022-12-17T08:01:18.282Z,24.20
2022-12-17T08:03:58.885Z,26.00
2022-12-17T08:06:38.452Z,28.38
2022-12-17T08:09:19.362Z,25.88
2022-12-17T08:12:00.117Z,24.48
2022-12-17T08:14:42.492Z,25.85
2022-12-17T08:17:23.050Z,24.50
2022-12-17T08:20:04.319Z,30.85
2022-12-17T08:22:44.900Z,26.55
2022-12-17T08:25:24.392Z,25.92
2022-12-17T08:28:15.662Z,30.05
2022-12-17T08:31:07.591Z,28.90
2022-12-17T08:33:47.642Z,26.63
2022-12-17T08:36:28.103Z,26.98
2022-12-17T08:39:08.834Z,28.08
2022-12-17T08:41:54.908Z,28.15
2022-12-17T08:44:37.292Z,87.65
2022-12-17T08:47:17.941Z,29.58
2022-12-17T08:49:57.864Z,41.15
2022-12-17T08:52:38.350Z,45.28
2022-12-17T08:55:19.252Z,52.30
2022-12-17T08:58:13.672Z,82.85
2022-12-17T09:00:54.653Z,44.55
2022-12-17T09:03:38.059Z,86.70
2022-12-17T09:06:19.187Z,78.20
2022-12-17T09:09:00.195Z,110.22
2022-12-17T09:11:40.743Z,128.18
2022-12-17T09:14:21.325Z,144.23
2022-12-17T09:17:02.000Z,31.27
2022-12-17T09:19:42.641Z,48.25
2022-12-17T09:22:23.261Z,70.60
2022-12-17T09:25:12.641Z,39.40
2022-12-17T09:27:53.303Z,37.17
2022-12-17T09:30:33.895Z,55.60
2022-12-17T09:33:14.615Z,35.78
2022-12-17T09:35:55.122Z,33.13
2022-12-17T09:38:35.685Z,34.83
2022-12-17T09:41:30.117Z,35.65
2022-12-17T09:44:17.667Z,30.98
2022-12-17T09:47:03.766Z,44.25
2022-12-17T09:49:44.573Z,44.40
2022-12-17T09:52:34.232Z,37.20
2022-12-17T09:55:16.384Z,86.80
2022-12-17T09:57:58.210Z,46.10
2022-12-17T10:00:40.753Z,48.65
2022-12-17T10:03:26.345Z,29.58
2022-12-17T10:06:06.973Z,28.83
2022-12-17T10:08:47.615Z,24.30
2022-12-17T10:11:38.681Z,27.60
2022-12-17T10:14:29.003Z,28.52
2022-12-17T10:17:11.682Z,25.67
2022-12-17T10:19:54.132Z,26.83
2022-12-17T10:22:38.968Z,36.60
2022-12-17T10:25:27.765Z,27.70
2022-12-17T10:31:25.674Z,26.73
2022-12-17T10:34:08.380Z,32.83
2022-12-17T10:36:48.989Z,29.90
2022-12-17T10:42:44.733Z,28.38
2022-12-17T10:45:43.400Z,26.65
2022-12-17T10:48:40.278Z,28.58
2022-12-17T10:51:48.051Z,24.88
2022-12-17T10:54:36.716Z,29.52
2022-12-17T10:57:16.422Z,25.13
2022-12-17T10:59:59.612Z,29.08
2022-12-17T11:02:41.458Z,26.83
2022-12-17T11:05:30.049Z,24.67
2022-12-17T11:08:10.901Z,25.48
2022-12-17T11:10:59.651Z,25.17
2022-12-17T11:13:45.751Z,26.55
2022-12-17T11:16:33.012Z,30.40
2022-12-17T11:19:33.639Z,27.90
2022-12-17T11:22:22.817Z,29.92
2022-12-17T11:25:05.573Z,28.55
2022-12-17T11:27:53.513Z,31.40
2022-12-17T11:30:42.029Z,30.42
2022-12-17T11:33:37.555Z,32.13
2022-12-17T11:36:29.493Z,30.08
2022-12-17T11:39:25.095Z,25.77
2022-12-17T11:42:33.200Z,27.80
2022-12-17T11:45:24.102Z,26.33
2022-12-17T11:48:19.810Z,35.92
2022-12-17T11:51:03.318Z,37.53
2022-12-17T11:54:04.161Z,35.78
2022-12-17T11:56:51.449Z,23.63
2022-12-17T11:59:41.161Z,64.95
2022-12-17T12:02:44.025Z,34.15
2022-12-17T12:05:36.559Z,31.80
2022-12-17T12:08:32.738Z,40.97
2022-12-17T12:11:31.709Z,42.78
2022-12-17T12:14:17.611Z,34.65
2022-12-17T12:17:06.934Z,45.83
2022-12-17T12:20:01.432Z,32.10
2022-12-17T12:22:42.122Z,26.48
2022-12-17T12:25:35.553Z,39.85
2022-12-17T12:28:29.893Z,38.80
2022-12-17T12:31:10.728Z,47.30
2022-12-17T12:34:11.468Z,35.22
2022-12-17T12:36:54.386Z,42.15
2022-12-17T12:39:39.607Z,33.17
2022-12-17T12:45:09.602Z,33.25
2022-12-17T12:47:50.963Z,40.95
2022-12-17T12:50:36.330Z,53.60
2022-12-17T12:53:17.039Z,34.83
2022-12-17T12:55:57.716Z,34.35
2022-12-17T12:58:40.120Z,37.20
2022-12-17T13:01:20.807Z,39.22
2022-12-17T13:04:01.426Z,36.65
2022-12-17T13:06:42.049Z,39.30
2022-12-17T13:09:26.943Z,32.90
2022-12-17T13:12:00.460Z,36.75
2022-12-17T13:14:29.170Z,42.22
2022-12-17T13:17:09.731Z,43.50
2022-12-17T13:19:40.482Z,36.58
2022-12-17T13:22:10.869Z,32.40
2022-12-17T13:24:37.630Z,34.42
2022-12-17T13:27:04.660Z,34.83
2022-12-17T13:29:36.268Z,41.08
2022-12-17T13:32:17.085Z,42.83
2022-12-17T13:34:57.551Z,36.03
2022-12-17T13:37:30.658Z,37.13
2022-12-17T13:40:13.187Z,43.03
2022-12-17T13:42:40.191Z,38.33
2022-12-17T13:45:07.280Z,33.15
2022-12-17T13:47:35.363Z,31.10
2022-12-17T13:52:51.896Z,32.55
2022-12-17T13:55:21.848Z,32.50
2022-12-17T13:57:49.544Z,33.75
2022-12-17T14:00:23.955Z,35.45
2022-12-17T14:02:51.787Z,35.15
2022-12-17T14:05:38.494Z,33.25
2022-12-17T14:08:11.935Z,35.40
2022-12-17T14:11:06.660Z,38.03
2022-12-17T14:13:38.676Z,33.63
2022-12-17T14:19:12.765Z,34.78
2022-12-17T14:21:44.129Z,32.60
2022-12-17T14:26:55.343Z,60.35
2022-12-17T14:29:23.580Z,42.75
2022-12-17T14:31:55.596Z,38.70
2022-12-17T14:34:24.954Z,37.30
2022-12-17T14:37:01.878Z,31.88
2022-12-17T14:43:17.489Z,44.72
2022-12-17T14:46:12.225Z,31.08
2022-12-17T14:48:54.028Z,31.73
2022-12-17T14:51:28.105Z,51.05
2022-12-17T14:54:09.560Z,44.72
2022-12-17T14:56:47.931Z,45.20
2022-12-17T14:59:29.453Z,42.83
2022-12-17T15:01:58.353Z,32.38
2022-12-17T15:04:26.589Z,37.08
2022-12-17T15:06:55.177Z,42.33
2022-12-17T15:09:23.332Z,50.30
2022-12-17T15:11:52.586Z,40.33
2022-12-17T15:14:21.146Z,48.25
2022-12-17T15:16:47.762Z,42.03
2022-12-17T15:19:14.526Z,34.60
2022-12-17T15:21:41.655Z,39.33
2022-12-17T15:24:11.843Z,30.48
2022-12-17T15:26:38.442Z,31.02
2022-12-17T15:29:05.223Z,33.72
2022-12-17T15:31:35.390Z,26.05
2022-12-17T15:34:02.685Z,31.85
2022-12-17T15:36:30.315Z,38.25
2022-12-17T15:38:57.260Z,32.30
2022-12-17T15:41:37.838Z,28.00
2022-12-17T15:44:04.687Z,27.98
2022-12-17T15:46:31.475Z,27.65
2022-12-17T15:48:58.877Z,35.97
2022-12-17T15:51:25.743Z,44.13
2022-12-17T15:53:56.980Z,32.78
2022-12-17T15:56:45.316Z,32.75
2022-12-17T15:59:14.872Z,37.22
2022-12-17T16:03:16.863Z,33.92
2022-12-17T16:04:36.748Z,56.53
2022-12-17T16:07:03.892Z,30.48
2022-12-17T16:09:30.995Z,30.15
2022-12-17T16:11:57.804Z,30.00
2022-12-17T16:14:25.808Z,28.35
2022-12-17T16:16:52.626Z,37.50
2022-12-17T16:19:19.389Z,29.48
2022-12-17T16:21:47.172Z,35.95
2022-12-17T16:24:20.949Z,25.17
2022-12-17T16:26:47.954Z,25.57
2022-12-17T16:29:14.610Z,23.77
2022-12-17T16:31:41.612Z,24.83
2022-12-17T16:34:09.841Z,25.15
2022-12-17T16:36:36.801Z,20.27
2022-12-17T16:39:04.315Z,26.30
2022-12-17T16:41:31.273Z,25.05
2022-12-17T16:43:58.124Z,28.48
2022-12-17T16:46:26.986Z,28.38
2022-12-17T16:48:54.502Z,14.95
2022-12-17T16:51:28.423Z,35.85
2022-12-17T16:53:55.927Z,31.48
2022-12-17T16:56:24.771Z,22.08
2022-12-17T16:58:52.569Z,22.92
2022-12-17T17:01:23.584Z,26.20
2022-12-17T17:03:50.610Z,23.42
2022-12-17T17:06:18.150Z,31.30
2022-12-17T17:08:50.433Z,25.15
2022-12-17T17:11:19.523Z,35.85
2022-12-17T17:13:46.142Z,34.35
2022-12-17T17:16:36.219Z,42.90
2022-12-17T17:19:07.105Z,40.90
2022-12-17T17:21:34.681Z,21.92
2022-12-17T17:24:22.282Z,77.45
2022-12-17T17:26:50.100Z,30.63
2022-12-17T17:29:16.873Z,61.25
2022-12-17T17:32:09.094Z,62.80
2022-12-17T17:34:30.110Z,34.45
2022-12-17T17:36:56.814Z,104.03
2022-12-17T17:39:23.485Z,77.20
2022-12-17T17:41:50.235Z,43.25
2022-12-17T17:44:20.052Z,70.38
2022-12-17T17:46:46.932Z,37.28
2022-12-17T17:49:13.696Z,90.32
2022-12-17T17:54:28.582Z,32.17
2022-12-17T17:56:55.283Z,34.10
2022-12-17T17:59:27.782Z,30.27
2022-12-17T18:01:58.235Z,37.47
2022-12-17T18:04:24.937Z,32.63
2022-12-17T18:09:38.515Z,37.85
2022-12-17T18:12:25.509Z,30.52
2022-12-17T18:15:13.124Z,41.60
2022-12-17T18:17:39.336Z,26.65
2022-12-17T18:20:06.652Z,27.58
2022-12-17T18:22:33.282Z,31.95
2022-12-17T18:24:59.910Z,28.63
2022-12-17T18:27:26.584Z,28.60
2022-12-17T18:29:53.299Z,28.33
2022-12-17T18:32:19.941Z,34.28
2022-12-17T18:34:46.937Z,23.88
2022-12-17T18:37:14.210Z,26.15
2022-12-17T18:39:41.948Z,27.52
2022-12-17T18:45:03.996Z,25.70
2022-12-17T18:47:30.719Z,29.25
2022-12-17T18:50:21.493Z,38.03
2022-12-17T18:52:52.129Z,26.00
2022-12-17T18:55:20.315Z,38.00
2022-12-17T18:57:48.093Z,25.67
2022-12-17T19:00:24.849Z,32.65
2022-12-17T19:02:51.573Z,29.92
2022-12-17T19:05:25.362Z,22.70
2022-12-17T19:07:52.332Z,29.27
2022-12-17T19:10:31.150Z,27.15
2022-12-17T19:13:05.932Z,30.13
2022-12-17T19:15:44.166Z,23.02
2022-12-17T19:18:22.150Z,25.27
2022-12-17T19:20:49.352Z,22.45
2022-12-17T19:23:16.418Z,26.80
2022-12-17T19:25:43.928Z,23.67
2022-12-17T19:28:10.709Z,28.20
2022-12-17T19:30:39.728Z,30.42
2022-12-17T19:33:06.486Z,31.75
2022-12-17T19:35:39.105Z,27.55
2022-12-17T19:38:06.639Z,27.60
2022-12-17T19:40:38.114Z,21.95
2022-12-17T19:43:05.343Z,33.17
2022-12-17T19:45:37.194Z,25.88
2022-12-17T19:48:04.452Z,29.33
2022-12-17T19:50:44.769Z,25.88
2022-12-17T19:53:23.938Z,28.73
2022-12-17T19:55:56.112Z,27.13
2022-12-17T20:01:26.760Z,22.33
2022-12-17T20:04:02.700Z,26.95
2022-12-17T20:06:47.680Z,23.98
2022-12-17T20:09:22.459Z,27.13
2022-12-17T20:11:54.104Z,31.17
2022-12-17T20:14:25.572Z,28.80
2022-12-17T20:16:57.824Z,24.95
2022-12-17T20:19:31.930Z,22.58
2022-12-17T20:21:59.710Z,22.02
2022-12-17T20:24:56.640Z,23.95
2022-12-17T20:31:26.181Z,23.75
2022-12-17T20:36:45.062Z,24.50
2022-12-17T20:39:12.919Z,24.73
2022-12-17T20:42:01.667Z,21.55
2022-12-17T20:44:35.234Z,22.27
2022-12-17T20:47:05.318Z,24.48
2022-12-17T20:49:32.065Z,28.85
2022-12-17T20:52:01.860Z,26.45
2022-12-17T20:54:28.518Z,29.05
2022-12-17T20:56:55.261Z,27.60
2022-12-17T20:59:25.627Z,35.83
2022-12-17T21:01:56.044Z,26.83
2022-12-17T21:04:23.462Z,21.85
2022-12-17T21:06:50.208Z,22.88
2022-12-17T21:09:18.756Z,29.55
2022-12-17T21:11:45.435Z,30.42
2022-12-17T21:14:13.411Z,29.10
2022-12-17T21:16:44.376Z,42.75
2022-12-17T21:19:16.764Z,34.08
2022-12-17T21:21:46.828Z,27.20
2022-12-17T21:24:13.377Z,34.40
2022-12-17T21:26:41.357Z,32.97
2022-12-17T21:29:08.748Z,22.58
2022-12-17T21:31:40.948Z,36.65
2022-12-17T21:34:11.056Z,18.15
2022-12-17T21:36:37.989Z,24.85
2022-12-17T21:39:08.870Z,19.20
2022-12-17T21:41:38.158Z,19.88
2022-12-17T21:44:07.701Z,16.98
2022-12-17T21:46:34.887Z,15.68
2022-12-17T21:49:05.421Z,19.10
2022-12-17T21:51:32.824Z,13.93
2022-12-17T21:54:08.449Z,15.77
2022-12-17T21:56:36.334Z,17.38
2022-12-17T21:59:03.199Z,16.15
2022-12-17T22:01:32.308Z,15.98
2022-12-17T22:04:00.080Z,18.58
2022-12-17T22:06:31.209Z,18.33
2022-12-17T22:09:15.174Z,18.13
2022-12-17T22:12:10.719Z,17.48
2022-12-17T22:14:37.550Z,18.95
2022-12-17T22:17:04.323Z,20.73
2022-12-17T22:19:30.899Z,21.08
2022-12-17T22:21:58.059Z,16.50
2022-12-17T22:24:25.591Z,20.88
2022-12-17T22:26:59.614Z,24.45
2022-12-17T22:29:41.442Z,17.05
2022-12-17T22:32:22.434Z,14.52
2022-12-17T22:36:27.317Z,15.32
2022-12-17T22:39:37.283Z,15.10
2022-12-17T22:44:34.121Z,13.40
2022-12-17T22:46:07.622Z,13.27
2022-12-17T22:48:35.939Z,13.70
2022-12-17T22:51:40.428Z,13.77
2022-12-17T22:54:00.315Z,12.77
2022-12-17T22:57:35.129Z,13.32
2022-12-17T22:59:26.040Z,12.80
2022-12-17T23:01:52.910Z,14.30
2022-12-17T23:04:20.148Z,13.60
2022-12-17T23:06:51.309Z,15.38
2022-12-17T23:09:19.558Z,16.92
2022-12-17T23:11:47.281Z,15.25
2022-12-17T23:14:17.423Z,16.58
2022-12-17T23:16:44.555Z,25.33
2022-12-17T23:19:11.364Z,17.00
2022-12-17T23:21:42.366Z,17.20
2022-12-17T23:24:16.166Z,19.52
2022-12-17T23:26:43.132Z,19.83
2022-12-17T23:29:19.085Z,21.42
2022-12-17T23:31:46.504Z,20.42
2022-12-17T23:34:13.273Z,19.80
2022-12-17T23:36:43.163Z,21.40
2022-12-17T23:39:32.199Z,21.15
2022-12-17T23:41:58.881Z,22.23
2022-12-17T23:44:25.666Z,20.85
2022-12-17T23:46:52.544Z,20.85
2022-12-17T23:49:19.399Z,18.45
2022-12-17T23:51:46.193Z,18.17
2022-12-17T23:54:18.794Z,19.02
2022-12-17T23:56:45.708Z,17.83
2022-12-17T23:59:21.710Z,17.50
